createdAt,value
2019-01-08T00:03:22.341Z,100825.09
2019-01-08T00:08:19.039Z,100833.34
2019-01-08T00:13:11.306Z,100843.52
2019-01-08T00:18:03.442Z,100838.14
2019-01-08T00:22:55.370Z,100850.99
2019-01-08T00:27:47.248Z,100846.48
2019-01-08T00:32:39.167Z,100855.66
2019-01-08T00:37:31.453Z,100858.17
2019-01-08T00:42:23.312Z,100865.36
2019-01-08T00:47:17.544Z,100862.63
2019-01-08T00:52:11.423Z,100870.31
2019-01-08T00:57:02.599Z,100862.66
2019-01-08T01:01:55.205Z,100861.83
2019-01-08T01:07:10.215Z,100865.86
2019-01-08T01:12:01.860Z,100861.38
2019-01-08T01:16:54.038Z,100858.55
2019-01-08T01:21:45.223Z,100845.84
2019-01-08T01:26:39.183Z,100845.74
2019-01-08T01:31:30.635Z,100840.05
2019-01-08T01:36:21.950Z,100837.04
2019-01-08T01:41:14.382Z,100831.28
2019-01-08T01:46:06.799Z,100816.13
2019-01-08T01:50:57.463Z,100825.67
2019-01-08T01:55:48.817Z,100818.05
2019-01-08T02:00:42.824Z,100807.70
2019-01-08T02:05:36.675Z,100800.39
2019-01-08T02:10:29.609Z,100796.03
2019-01-08T02:15:40.385Z,100790.77
2019-01-08T02:20:31.906Z,100777.69
2019-01-08T02:25:24.426Z,100779.97
2019-01-08T02:30:16.243Z,100774.75
2019-01-08T02:35:09.148Z,100771.62
2019-01-08T02:40:03.257Z,100768.02
2019-01-08T02:44:55.000Z,100777.58
2019-01-08T02:49:46.168Z,100772.44
2019-01-08T02:54:39.055Z,100776.39
2019-01-08T02:59:29.917Z,100775.41
2019-01-08T03:04:21.386Z,100769.37
2019-01-08T03:09:14.187Z,100771.11
2019-01-08T03:14:06.194Z,100770.79
2019-01-08T03:19:01.597Z,100781.91
2019-01-08T03:23:54.738Z,100775.06
2019-01-08T03:28:47.880Z,100774.66
2019-01-08T03:33:39.397Z,100773.91
2019-01-08T03:38:33.439Z,100776.97
2019-01-08T03:43:26.781Z,100774.45
2019-01-08T03:48:18.024Z,100772.92
2019-01-08T03:53:10.636Z,100773.95
2019-01-08T03:58:01.212Z,100769.45
2019-01-08T04:03:18.671Z,100763.43
2019-01-08T04:08:14.079Z,100759.16
2019-01-08T04:13:21.792Z,100764.08
2019-01-08T04:18:12.849Z,100758.39
2019-01-08T04:23:04.197Z,100754.41
2019-01-08T04:27:57.120Z,100748.86
2019-01-08T04:32:50.272Z,100749.33
2019-01-08T04:37:41.255Z,100743.11
2019-01-08T04:42:34.012Z,100740.02
2019-01-08T04:47:25.691Z,100733.96
2019-01-08T04:52:16.437Z,100732.75
2019-01-08T04:57:07.372Z,100728.14
2019-01-08T05:01:58.770Z,100726.06
2019-01-08T05:06:49.813Z,100718.76
2019-01-08T05:11:41.992Z,100709.52
2019-01-08T05:16:33.712Z,100704.16
2019-01-08T05:21:27.533Z,100703.50
2019-01-08T05:26:24.280Z,100712.54
2019-01-08T05:31:14.602Z,100709.24
2019-01-08T05:36:10.378Z,100711.07
2019-01-08T05:41:02.108Z,100711.31
2019-01-08T05:45:54.434Z,100708.53
2019-01-08T05:50:47.279Z,100705.17
2019-01-08T05:55:41.776Z,100709.38
2019-01-08T06:00:33.083Z,100702.36
2019-01-08T06:05:24.438Z,100714.71
2019-01-08T06:10:16.517Z,100712.37
2019-01-08T06:15:07.166Z,100713.03
2019-01-08T06:19:57.939Z,100710.21
2019-01-08T06:24:50.244Z,100707.45
2019-01-08T06:29:43.349Z,100713.02
2019-01-08T06:34:34.223Z,100717.55
2019-01-08T06:39:25.563Z,100722.48
2019-01-08T06:44:18.925Z,100726.69
2019-01-08T06:49:12.158Z,100733.80
2019-01-08T06:54:05.175Z,100731.75
2019-01-08T06:58:56.945Z,100723.62
2019-01-08T07:03:48.064Z,100723.50
2019-01-08T07:08:41.303Z,100719.55
2019-01-08T07:13:32.249Z,100715.19
2019-01-08T07:18:23.571Z,100720.63
2019-01-08T07:23:16.463Z,100714.92
2019-01-08T07:28:07.494Z,100711.31
2019-01-08T07:32:59.130Z,100695.66
2019-01-08T07:37:52.127Z,100694.78
2019-01-08T07:42:42.793Z,100681.16
2019-01-08T07:47:33.659Z,100676.45
2019-01-08T07:52:32.132Z,100665.64
2019-01-08T07:57:23.950Z,100658.92
2019-01-08T08:02:17.139Z,100652.48
2019-01-08T08:07:07.480Z,100651.19
2019-01-08T08:11:58.729Z,100644.13
2019-01-08T08:16:51.809Z,100644.16
2019-01-08T08:21:45.404Z,100635.19
2019-01-08T08:26:37.977Z,100622.05
2019-01-08T08:31:31.486Z,100618.15
2019-01-08T08:36:21.789Z,100609.37
2019-01-08T08:41:12.913Z,100602.59
2019-01-08T08:46:05.566Z,100599.95
2019-01-08T08:50:56.579Z,100592.56
2019-01-08T08:55:48.091Z,100588.24
2019-01-08T09:00:44.671Z,100564.77
2019-01-08T09:05:35.149Z,100563.06
2019-01-08T09:10:28.775Z,100555.63
2019-01-08T09:15:49.112Z,100547.41
2019-01-08T09:21:06.177Z,100534.98
2019-01-08T09:26:21.952Z,100531.34
2019-01-08T09:31:40.834Z,100522.14
2019-01-08T09:37:04.314Z,100514.52
2019-01-08T09:42:26.116Z,100503.21
2019-01-08T09:47:48.680Z,100504.59
2019-01-08T09:53:06.142Z,100494.72
2019-01-08T09:58:23.797Z,100481.03
2019-01-08T10:03:41.766Z,100473.87
2019-01-08T10:09:00.634Z,100466.55
2019-01-08T10:14:20.256Z,100455.77
2019-01-08T10:19:35.868Z,100445.30
2019-01-08T10:24:51.596Z,100444.33
2019-01-08T10:30:04.719Z,100417.04
2019-01-08T10:35:21.056Z,100389.92
2019-01-08T10:40:14.518Z,100389.92
2019-01-08T10:45:27.140Z,100382.30
2019-01-08T10:50:20.024Z,100377.27
2019-01-08T10:55:13.422Z,100347.86
2019-01-08T11:00:04.445Z,100347.86
2019-01-08T11:04:57.329Z,100338.79
2019-01-08T11:09:51.089Z,100323.48
2019-01-08T11:14:41.258Z,100308.02
2019-01-08T11:19:34.402Z,100308.50
2019-01-08T11:24:27.355Z,100289.97
2019-01-08T11:29:18.842Z,100276.73
2019-01-08T11:34:10.168Z,100276.73
2019-01-08T11:39:03.290Z,100279.70
2019-01-08T11:43:54.869Z,100271.09
2019-01-08T11:48:45.683Z,100265.42
2019-01-08T11:53:38.009Z,100254.86
2019-01-08T11:58:32.258Z,100244.53
2019-01-08T12:03:24.580Z,100239.06
2019-01-08T12:08:15.633Z,100231.25
2019-01-08T12:13:06.613Z,100230.91
2019-01-08T12:17:57.005Z,100224.98
2019-01-08T12:22:49.127Z,100227.98
2019-01-08T12:27:40.177Z,100215.47
2019-01-08T12:32:33.127Z,100220.34
2019-01-08T12:37:24.641Z,100204.03
2019-01-08T12:42:17.265Z,100199.44
2019-01-08T12:47:07.372Z,100196.98
2019-01-08T12:51:58.459Z,100202.77
2019-01-08T12:56:49.730Z,100202.77
2019-01-08T13:01:41.058Z,100192.45
2019-01-08T13:06:31.841Z,100187.89
2019-01-08T13:11:25.142Z,100187.89
2019-01-08T13:16:19.143Z,100184.44
2019-01-08T13:21:12.264Z,100177.43
2019-01-08T13:26:03.002Z,100171.37
2019-01-08T13:30:53.094Z,100161.42
2019-01-08T13:35:43.740Z,100146.08
2019-01-08T13:40:34.488Z,100146.08
2019-01-08T13:45:27.134Z,100152.79
2019-01-08T13:50:17.420Z,100154.09
2019-01-08T13:55:11.987Z,100144.28
2019-01-08T14:00:05.413Z,100139.66
2019-01-08T14:04:58.015Z,100140.97
2019-01-08T14:09:49.923Z,100130.91
2019-01-08T14:14:41.489Z,100127.12
2019-01-08T14:19:31.286Z,100123.14
2019-01-08T14:24:21.677Z,100122.35
2019-01-08T14:29:13.053Z,100115.98
2019-01-08T14:34:04.567Z,100117.36
2019-01-08T14:38:55.339Z,100108.61
2019-01-08T14:43:45.717Z,100105.37
2019-01-08T14:48:39.880Z,100099.86
2019-01-08T14:53:31.000Z,100094.32
2019-01-08T14:58:22.206Z,100086.80
2019-01-08T15:03:14.388Z,100087.30
2019-01-08T15:08:05.106Z,100082.85
2019-01-08T15:12:56.506Z,100084.89
2019-01-08T15:17:48.286Z,100078.98
2019-01-08T15:22:41.280Z,100076.22
2019-01-08T15:27:35.353Z,100068.23
2019-01-08T15:32:27.113Z,100062.17
2019-01-08T15:37:17.464Z,100056.78
2019-01-08T15:42:16.398Z,100048.00
2019-01-08T15:47:06.774Z,100042.50
2019-01-08T15:52:01.708Z,100041.23
2019-01-08T15:56:54.076Z,100034.21
2019-01-08T16:01:45.365Z,100036.02
2019-01-08T16:06:36.184Z,100034.28
2019-01-08T16:11:29.039Z,100027.37
2019-01-08T16:16:19.382Z,100032.20
2019-01-08T16:21:10.210Z,100037.59
2019-01-08T16:26:03.325Z,100034.27
2019-01-08T16:30:53.113Z,100027.10
2019-01-08T16:35:50.228Z,100028.64
2019-01-08T16:40:40.365Z,100024.44
2019-01-08T16:45:34.072Z,100030.67
2019-01-08T16:50:24.840Z,100033.64
2019-01-08T16:55:18.736Z,100034.23
2019-01-08T17:00:12.866Z,100034.81
2019-01-08T17:05:03.427Z,100027.58
2019-01-08T17:09:54.260Z,100031.98
2019-01-08T17:14:45.835Z,100028.92
2019-01-08T17:19:42.310Z,100033.87
2019-01-08T17:24:32.868Z,100036.43
2019-01-08T17:29:24.452Z,100025.21
2019-01-08T17:34:16.305Z,100027.14
2019-01-08T17:39:10.410Z,100019.75
2019-01-08T17:44:02.825Z,100019.99
2019-01-08T17:48:56.795Z,100018.12
2019-01-08T17:53:47.525Z,100025.02
2019-01-08T17:59:01.946Z,100021.34
2019-01-08T18:04:01.362Z,100010.23
2019-01-08T18:08:52.279Z,100012.52
2019-01-08T18:13:52.578Z,100010.13
2019-01-08T18:19:13.756Z,100005.70
2019-01-08T18:24:08.978Z,100008.73
2019-01-08T18:29:07.455Z,100007.58
2019-01-08T18:34:38.566Z,100005.64
2019-01-08T18:39:32.232Z,100010.23
2019-01-08T18:44:32.312Z,100008.48
2019-01-08T18:49:36.794Z,100005.28
2019-01-08T18:54:36.075Z,99996.62
2019-01-08T18:59:27.421Z,99983.98
2019-01-08T19:04:18.381Z,99976.06
2019-01-08T19:09:39.279Z,99967.98
2019-01-08T19:14:53.706Z,99958.04
2019-01-08T19:20:13.859Z,99952.01
2019-01-08T19:31:06.369Z,99950.89
2019-01-08T19:36:01.487Z,99943.62
2019-01-08T19:40:53.259Z,99947.10
2019-01-08T19:45:45.518Z,99944.95
2019-01-08T19:50:43.874Z,99933.13
2019-01-08T19:55:37.226Z,99926.81
2019-01-08T20:00:28.606Z,99926.81
2019-01-08T20:05:29.536Z,99923.90
2019-01-08T20:10:22.714Z,99917.03
2019-01-08T20:15:15.809Z,99899.07
2019-01-08T20:20:06.616Z,99901.11
2019-01-08T20:24:57.243Z,99896.60
2019-01-08T20:29:47.749Z,99884.67
2019-01-08T20:34:38.355Z,99869.06
2019-01-08T20:39:28.362Z,99863.96
2019-01-08T20:44:18.673Z,99854.33
2019-01-08T20:49:08.807Z,99853.61
2019-01-08T20:54:02.060Z,99846.90
2019-01-08T20:58:52.214Z,99853.56
2019-01-08T21:03:42.703Z,99848.86
2019-01-08T21:08:34.016Z,99849.47
2019-01-08T21:13:25.114Z,99845.28
2019-01-08T21:18:15.900Z,99838.06
2019-01-08T21:23:06.804Z,99836.38
2019-01-08T21:27:58.395Z,99843.27
2019-01-08T21:32:55.170Z,99839.12
2019-01-08T21:38:03.412Z,99836.80
2019-01-08T21:42:56.508Z,99834.45
2019-01-08T21:47:51.597Z,99826.37
2019-01-08T21:52:46.396Z,99816.98
2019-01-08T21:57:37.536Z,99815.35
2019-01-08T22:02:28.360Z,99807.64
2019-01-08T22:07:30.340Z,99812.45
2019-01-08T22:12:20.476Z,99803.84
2019-01-08T22:17:10.187Z,99797.24
2019-01-08T22:22:00.350Z,99791.38
2019-01-08T22:26:50.470Z,99785.09
2019-01-08T22:31:40.773Z,99783.38
2019-01-08T22:36:30.737Z,99769.83
2019-01-08T22:41:21.551Z,99762.23
2019-01-08T22:46:11.871Z,99761.11
2019-01-08T22:51:02.166Z,99758.94
2019-01-08T22:55:56.073Z,99761.44
2019-01-08T23:01:05.808Z,99745.38
2019-01-08T23:05:56.141Z,99743.45
2019-01-08T23:10:45.933Z,99739.33
2019-01-08T23:15:35.257Z,99733.39
2019-01-08T23:20:25.587Z,99723.75
2019-01-08T23:25:15.901Z,99712.56
2019-01-08T23:30:06.979Z,99715.20
2019-01-08T23:34:59.759Z,99712.30
2019-01-08T23:39:49.858Z,99707.11
2019-01-08T23:44:40.447Z,99699.38
2019-01-08T23:49:32.959Z,99699.96
2019-01-08T23:54:27.211Z,99700.17
2019-01-08T23:59:17.256Z,99709.11
